Time;durP1;ratioP1;P1;durP2;ratioP2;P2;SDS_P1;SDS_P2;PMS_P1;PMS_P2;Temp;Humidity;BMP_temperature;BMP_pressure;BME280_temperature;BME280_humidity;BME280_pressure;Samples;Min_cycle;Max_cycle;Signal;HPM_P1;HPM_P2
2021/07/19 00:01:09;;;;;;;3.08;1.70;;;23.50;64.70;;;;;;5119913;28;20024;-70
2021/07/19 00:03:35;;;;;;;1.92;1.10;;;23.60;64.50;;;;;;5119494;28;20028;-70
2021/07/19 00:06:01;;;;;;;1.67;1.33;;;23.60;65.90;;;;;;5119616;28;20065;-70
2021/07/19 00:08:27;;;;;;;5.35;1.40;;;23.60;67.10;;;;;;5119424;28;20400;-70
2021/07/19 00:10:52;;;;;;;1.70;1.05;;;23.50;66.60;;;;;;5119690;28;20038;-70
2021/07/19 00:13:18;;;;;;;4.78;1.40;;;23.50;66.70;;;;;;5119489;28;20358;-70
2021/07/19 00:15:44;;;;;;;2.00;1.80;;;23.50;67.70;;;;;;5119586;28;20500;-70
2021/07/19 00:18:09;;;;;;;2.63;1.33;;;23.50;67.70;;;;;;5119206;28;20420;-70
2021/07/19 00:20:35;;;;;;;3.35;1.20;;;23.40;67.40;;;;;;5119199;28;20020;-70
2021/07/19 00:23:01;;;;;;;2.53;1.30;;;23.20;69.00;;;;;;5119165;28;20103;-70
2021/07/19 00:25:26;;;;;;;2.28;1.48;;;23.10;69.40;;;;;;5119358;28;20032;-70
2021/07/19 00:27:55;;;;;;;3.40;1.40;;;22.90;70.20;;;;;;5119426;28;20022;-70
2021/07/19 00:30:22;;;;;;;6.45;1.80;;;22.80;71.10;;;;;;5119336;28;20032;-70
2021/07/19 00:32:48;;;;;;;2.17;1.50;;;22.80;70.60;;;;;;5119217;28;20023;-70
2021/07/19 00:35:14;;;;;;;2.05;1.60;;;22.70;70.30;;;;;;5118970;28;20107;-70
2021/07/19 00:37:40;;;;;;;4.10;1.75;;;22.70;69.90;;;;;;5119069;28;20417;-70
2021/07/19 00:40:10;;;;;;;2.35;1.40;;;22.90;67.40;;;;;;5118662;28;20074;-70
2021/07/19 00:42:39;;;;;;;2.50;1.40;;;23.10;67.50;;;;;;5118716;28;20055;-70
2021/07/19 00:45:09;;;;;;;3.05;1.40;;;23.20;66.70;;;;;;5119098;28;20035;-70
2021/07/19 00:47:35;;;;;;;2.80;1.40;;;23.40;65.10;;;;;;5118905;28;20055;-70
2021/07/19 00:50:01;;;;;;;1.73;1.10;;;23.50;63.70;;;;;;5118943;28;20478;-70
2021/07/19 00:52:26;;;;;;;1.77;1.02;;;23.80;60.60;;;;;;5118310;28;20481;-70
2021/07/19 00:54:53;;;;;;;1.33;1.20;;;24.10;64.10;;;;;;5118885;28;20088;-70
2021/07/19 00:57:21;;;;;;;1.50;1.00;;;24.10;63.80;;;;;;5118690;28;20046;-70
2021/07/19 00:59:47;;;;;;;1.70;1.40;;;24.10;60.50;;;;;;5118465;28;20399;-70
2021/07/19 01:02:14;;;;;;;1.98;1.30;;;24.10;63.70;;;;;;5118405;28;20094;-70
2021/07/19 01:04:41;;;;;;;2.95;1.55;;;23.90;64.20;;;;;;5118300;28;20396;-70
2021/07/19 01:07:09;;;;;;;2.15;1.50;;;23.80;63.40;;;;;;5118591;28;20024;-70
2021/07/19 01:09:36;;;;;;;2.60;1.48;;;23.80;64.00;;;;;;5118241;28;20115;-70
2021/07/19 01:12:02;;;;;;;2.70;1.15;;;23.80;64.00;;;;;;5118501;28;20319;-70
2021/07/19 01:14:28;;;;;;;1.75;1.10;;;23.80;62.30;;;;;;5118537;28;20035;-70
2021/07/19 01:16:54;;;;;;;1.90;1.10;;;23.80;63.60;;;;;;5118347;28;20032;-70
2021/07/19 01:19:22;;;;;;;1.67;1.13;;;23.80;62.50;;;;;;5118053;28;20077;-70
2021/07/19 01:22:06;;;;;;;1.52;1.23;;;23.80;62.40;;;;;;5118305;28;20016;-70
2021/07/19 01:25:13;;;;;;;1.95;1.35;;;23.80;63.20;;;;;;5118279;28;20031;-70
2021/07/19 01:28:09;;;;;;;3.00;1.10;;;23.80;62.60;;;;;;5117543;28;20110;-70
2021/07/19 01:30:40;;;;;;;2.05;1.20;;;23.80;65.20;;;;;;5110895;28;20035;-70
2021/07/19 01:33:07;;;;;;;2.47;1.50;;;23.70;64.80;;;;;;5117857;28;20063;-70
2021/07/19 01:35:35;;;;;;;2.78;1.30;;;23.60;66.00;;;;;;5118017;28;20076;-70
2021/07/19 01:38:03;;;;;;;2.08;1.08;;;23.40;65.60;;;;;;5117515;28;20031;-70
2021/07/19 01:40:30;;;;;;;2.00;1.13;;;23.30;64.10;;;;;;5117989;28;20032;-70
2021/07/19 01:42:57;;;;;;;0.98;0.80;;;23.50;63.80;;;;;;5117918;28;20149;-70
2021/07/19 01:45:23;;;;;;;1.52;0.90;;;23.60;63.10;;;;;;5117888;28;20028;-70
2021/07/19 01:47:50;;;;;;;0.90;0.70;;;23.70;63.20;;;;;;5117860;28;20028;-70
2021/07/19 01:50:17;;;;;;;1.50;0.90;;;23.80;61.70;;;;;;5117508;28;20110;-70
2021/07/19 01:52:43;;;;;;;3.30;1.30;;;23.80;63.00;;;;;;5117756;28;20077;-70
2021/07/19 01:55:11;;;;;;;1.98;0.98;;;23.80;64.30;;;;;;5117735;28;20080;-70
2021/07/19 01:57:37;;;;;;;2.25;0.95;;;23.50;66.30;;;;;;5117593;28;20024;-70
2021/07/19 02:00:08;;;;;;;1.90;1.17;;;23.20;67.90;;;;;;5117545;28;20072;-70
2021/07/19 02:02:37;;;;;;;2.45;1.20;;;23.00;68.20;;;;;;5117645;28;20305;-70
2021/07/19 02:05:12;;;;;;;1.30;1.08;;;22.90;68.60;;;;;;5116859;28;20022;-70
2021/07/19 02:07:39;;;;;;;1.70;1.23;;;22.80;68.10;;;;;;5117199;28;20103;-70
2021/07/19 02:10:10;;;;;;;3.10;1.13;;;22.70;68.40;;;;;;5117260;28;20027;-70
2021/07/19 02:12:37;;;;;;;2.47;1.15;;;22.50;68.20;;;;;;5117160;28;20025;-70
2021/07/19 02:15:17;;;;;;;1.10;0.98;;;22.40;66.90;;;;;;5117540;28;20126;-70
2021/07/19 02:17:48;;;;;;;3.00;0.90;;;22.50;66.40;;;;;;5117065;28;20115;-70
2021/07/19 02:20:15;;;;;;;2.05;1.10;;;22.60;65.20;;;;;;5117434;28;20400;-70
2021/07/19 02:22:43;;;;;;;1.60;0.90;;;22.90;65.10;;;;;;5117374;28;20343;-70
2021/07/19 02:25:11;;;;;;;1.17;0.90;;;23.00;63.80;;;;;;5117362;28;20129;-70
2021/07/19 02:27:38;;;;;;;1.10;0.90;;;23.10;65.20;;;;;;5116958;28;20031;-70
2021/07/19 02:30:10;;;;;;;2.40;1.15;;;23.10;62.40;;;;;;5117324;28;20110;-70
2021/07/19 02:32:39;;;;;;;2.70;0.85;;;23.20;61.90;;;;;;5117337;28;20035;-70
2021/07/19 02:35:06;;;;;;;1.65;1.00;;;23.30;61.50;;;;;;5117277;28;20034;-70
2021/07/19 02:37:54;;;;;;;4.18;1.00;;;23.30;61.60;;;;;;5116795;28;20094;-70
2021/07/19 02:40:22;;;;;;;1.10;0.80;;;23.30;62.50;;;;;;5116821;28;20032;-70
2021/07/19 02:42:56;;;;;;;2.00;0.85;;;23.20;62.20;;;;;;5117156;28;20359;-70
2021/07/19 02:45:22;;;;;;;2.58;1.10;;;23.20;60.20;;;;;;5117208;28;20357;-70
2021/07/19 02:47:50;;;;;;;1.73;1.05;;;23.30;59.50;;;;;;5117055;28;20315;-70
2021/07/19 02:50:34;;;;;;;2.80;1.00;;;23.40;59.90;;;;;;5117139;28;20032;-70
2021/07/19 02:53:04;;;;;;;1.73;1.13;;;23.20;63.30;;;;;;5117198;28;20098;-70
2021/07/19 02:55:31;;;;;;;2.05;1.42;;;23.10;60.10;;;;;;5117075;28;20077;-70
2021/07/19 02:57:59;;;;;;;2.58;1.38;;;23.20;58.90;;;;;;5117038;28;20106;-70
2021/07/19 03:00:25;;;;;;;1.80;1.42;;;23.20;59.00;;;;;;5117101;28;20016;-69
2021/07/19 03:02:57;;;;;;;2.70;1.10;;;23.30;59.30;;;;;;5117067;28;20476;-69
2021/07/19 03:05:27;;;;;;;3.13;1.30;;;23.20;58.80;;;;;;5116711;28;20031;-69
2021/07/19 03:07:56;;;;;;;4.68;1.40;;;23.20;58.40;;;;;;5116782;28;20415;-71
2021/07/19 03:10:22;;;;;;;13.27;1.67;;;23.30;57.60;;;;;;5116667;28;20416;-71
2021/07/19 03:12:52;;;;;;;8.27;1.67;;;23.50;57.70;;;;;;5116675;28;20024;-72
2021/07/19 03:15:18;;;;;;;1.92;1.52;;;23.70;56.80;;;;;;5118393;28;20327;-69
2021/07/19 03:17:47;;;;;;;5.13;1.45;;;23.90;56.60;;;;;;5120671;28;20102;-69
2021/07/19 03:20:13;;;;;;;2.55;1.20;;;23.90;56.80;;;;;;5120356;28;20443;-69
2021/07/19 03:22:40;;;;;;;3.33;1.73;;;23.80;56.90;;;;;;5120670;28;20148;-70
2021/07/19 03:25:10;;;;;;;6.85;1.75;;;23.80;55.90;;;;;;5120648;28;20031;-70
2021/07/19 03:27:41;;;;;;;5.10;1.60;;;23.70;56.40;;;;;;5120525;28;20028;-70
2021/07/19 03:30:08;;;;;;;1.40;1.00;;;23.60;58.50;;;;;;5120502;28;20035;-70
2021/07/19 03:32:35;;;;;;;4.35;1.60;;;23.40;57.50;;;;;;5120181;28;20101;-70
2021/07/19 03:35:04;;;;;;;2.80;1.40;;;23.20;60.10;;;;;;5120449;28;20023;-70
2021/07/19 03:37:30;;;;;;;3.70;1.45;;;23.00;62.90;;;;;;5120235;28;20026;-70
2021/07/19 03:39:58;;;;;;;3.10;1.25;;;22.90;63.80;;;;;;5119899;28;20074;-70
2021/07/19 03:42:25;;;;;;;3.65;1.70;;;22.70;64.40;;;;;;5119972;28;20426;-70
2021/07/19 03:44:51;;;;;;;2.22;1.30;;;22.90;60.30;;;;;;5120452;28;20391;-70
2021/07/19 03:47:17;;;;;;;3.83;1.65;;;22.90;64.20;;;;;;5120140;28;20322;-70
2021/07/19 03:49:45;;;;;;;2.50;1.60;;;22.90;64.90;;;;;;5119776;28;20063;-70
2021/07/19 03:52:11;;;;;;;2.35;1.13;;;22.80;66.10;;;;;;5119773;28;20024;-70
2021/07/19 03:54:37;;;;;;;2.88;1.45;;;22.50;66.30;;;;;;5120022;28;20023;-70
2021/07/19 03:57:03;;;;;;;4.68;1.85;;;22.20;64.60;;;;;;5119920;28;20123;-70
2021/07/19 03:59:30;;;;;;;6.50;1.70;;;22.20;63.50;;;;;;5119657;28;20455;-70
2021/07/19 04:01:57;;;;;;;6.85;1.60;;;22.20;64.70;;;;;;5119881;28;20064;-71
2021/07/19 04:04:38;;;;;;;5.05;1.77;;;22.10;61.50;;;;;;5119876;28;20035;-70
2021/07/19 04:07:04;;;;;;;4.32;1.80;;;22.30;61.30;;;;;;5119803;28;20031;-70
2021/07/19 04:09:30;;;;;;;8.02;2.08;;;22.40;59.30;;;;;;5119600;28;20031;-70
2021/07/19 04:11:56;;;;;;;4.00;1.95;;;22.60;57.70;;;;;;5119400;28;20424;-70
2021/07/19 04:14:23;;;;;;;4.20;2.50;;;22.90;55.20;;;;;;5119307;28;20035;-70
2021/07/19 04:16:49;;;;;;;4.63;2.00;;;23.20;54.90;;;;;;5119525;28;20034;-70
2021/07/19 04:19:15;;;;;;;5.07;2.00;;;23.50;53.20;;;;;;5119243;28;20105;-70
2021/07/19 04:21:41;;;;;;;5.15;2.33;;;23.70;52.80;;;;;;5119241;28;20027;-70
2021/07/19 04:24:08;;;;;;;5.93;2.25;;;23.80;53.30;;;;;;5119440;28;20111;-70
2021/07/19 04:26:36;;;;;;;4.85;2.35;;;23.80;52.70;;;;;;5118272;28;20361;-70
2021/07/19 04:29:04;;;;;;;7.03;2.20;;;23.90;52.90;;;;;;5119043;28;20323;-70
2021/07/19 04:31:31;;;;;;;3.55;1.88;;;24.00;51.90;;;;;;5119018;28;20027;-70
2021/07/19 04:33:57;;;;;;;5.35;2.20;;;24.00;53.00;;;;;;5119239;28;20351;-70
2021/07/19 04:36:23;;;;;;;8.30;2.35;;;23.90;52.60;;;;;;5119255;28;20040;-70
2021/07/19 04:38:49;;;;;;;6.03;2.30;;;23.90;51.50;;;;;;5118494;28;20428;-70
2021/07/19 04:41:19;;;;;;;4.43;1.98;;;24.00;51.50;;;;;;5119150;28;20038;-70
2021/07/19 04:43:48;;;;;;;6.88;2.55;;;24.00;51.50;;;;;;5119062;28;20475;-70
2021/07/19 04:46:15;;;;;;;5.78;2.33;;;24.10;51.10;;;;;;5119030;28;20031;-70
2021/07/19 04:48:41;;;;;;;5.38;2.00;;;24.20;51.40;;;;;;5118719;28;20023;-70
2021/07/19 04:51:07;;;;;;;4.00;2.08;;;24.20;51.90;;;;;;5118938;28;20020;-70
2021/07/19 04:53:33;;;;;;;5.25;2.58;;;24.20;51.30;;;;;;5118885;28;20050;-70
2021/07/19 04:56:00;;;;;;;6.25;2.25;;;24.30;50.80;;;;;;5118790;28;20076;-70
2021/07/19 04:58:27;;;;;;;4.45;2.08;;;24.30;50.50;;;;;;5118729;28;20034;-70
2021/07/19 05:00:56;;;;;;;7.60;2.60;;;24.30;50.50;;;;;;5118761;28;20311;-70
2021/07/19 05:03:29;;;;;;;3.75;2.03;;;24.40;51.00;;;;;;5118734;28;20342;-70
2021/07/19 05:05:57;;;;;;;6.75;2.20;;;24.30;50.90;;;;;;5118638;28;20024;-70
2021/07/19 05:08:24;;;;;;;6.22;2.17;;;24.30;50.60;;;;;;5118334;28;20023;-70
2021/07/19 05:10:50;;;;;;;7.70;2.50;;;24.30;50.90;;;;;;5118254;28;20032;-70
2021/07/19 05:13:18;;;;;;;4.93;2.10;;;24.30;51.20;;;;;;5118309;28;20031;-70
2021/07/19 05:15:45;;;;;;;8.60;2.72;;;24.30;50.80;;;;;;5118470;28;20036;-70
2021/07/19 05:18:11;;;;;;;4.10;2.20;;;24.40;49.80;;;;;;5117922;28;20028;-70
2021/07/19 05:20:39;;;;;;;5.40;2.50;;;24.40;50.60;;;;;;5118360;28;20066;-70
2021/07/19 05:23:05;;;;;;;4.03;2.20;;;24.50;49.00;;;;;;5118012;28;20411;-70
2021/07/19 05:25:32;;;;;;;5.65;2.60;;;24.50;49.60;;;;;;5117936;28;20026;-70
2021/07/19 05:27:58;;;;;;;5.63;2.17;;;24.50;49.10;;;;;;5118264;28;20107;-70
2021/07/19 05:30:23;;;;;;;11.25;2.33;;;24.60;49.40;;;;;;5117891;28;20132;-70
2021/07/19 05:32:50;;;;;;;6.35;2.40;;;24.70;48.70;;;;;;5117835;28;20023;-70
2021/07/19 05:35:17;;;;;;;6.43;2.38;;;24.70;47.90;;;;;;5117766;28;20062;-70
2021/07/19 05:37:42;;;;;;;5.70;2.30;;;24.80;48.50;;;;;;5117808;28;20019;-70
2021/07/19 05:40:09;;;;;;;7.53;2.50;;;24.80;47.40;;;;;;5117543;28;20050;-70
2021/07/19 05:42:34;;;;;;;7.80;2.63;;;24.90;47.40;;;;;;5118132;28;20308;-70
2021/07/19 05:45:00;;;;;;;6.97;2.60;;;25.00;48.00;;;;;;5117954;28;20061;-70
2021/07/19 05:47:26;;;;;;;8.55;2.58;;;24.90;48.30;;;;;;5117855;28;20039;-70
2021/07/19 05:49:51;;;;;;;4.38;2.10;;;24.90;47.50;;;;;;5117840;28;20031;-70
2021/07/19 05:52:17;;;;;;;5.85;2.33;;;25.00;47.30;;;;;;5117823;28;20032;-70
2021/07/19 05:54:42;;;;;;;11.13;3.15;;;25.00;47.30;;;;;;5117803;28;20031;-70
2021/07/19 05:57:08;;;;;;;5.03;2.13;;;25.10;47.60;;;;;;5117643;28;20055;-70
2021/07/19 05:59:34;;;;;;;5.28;2.35;;;25.20;46.90;;;;;;5099482;28;20425;-70
2021/07/19 06:02:00;;;;;;;6.70;2.40;;;25.20;45.20;;;;;;5117662;28;20023;-70
2021/07/19 06:04:26;;;;;;;8.73;2.47;;;25.30;46.70;;;;;;5117325;28;20316;-70
2021/07/19 06:06:51;;;;;;;5.63;2.40;;;25.40;44.80;;;;;;5117598;28;20028;-70
2021/07/19 06:09:17;;;;;;;5.90;2.40;;;25.50;44.80;;;;;;5117258;28;20119;-70
2021/07/19 06:11:42;;;;;;;11.45;2.78;;;25.60;45.20;;;;;;5117383;28;20051;-70
2021/07/19 06:14:08;;;;;;;4.68;2.20;;;25.80;44.60;;;;;;5117642;28;20070;-70
2021/07/19 06:16:34;;;;;;;11.27;2.65;;;25.80;45.00;;;;;;5117307;28;20062;-70
2021/07/19 06:19:00;;;;;;;8.32;2.75;;;25.90;45.50;;;;;;5117454;28;20019;-70
2021/07/19 06:21:26;;;;;;;9.05;3.15;;;25.90;44.60;;;;;;5117170;28;20047;-70
2021/07/19 06:23:51;;;;;;;6.53;2.47;;;26.00;43.40;;;;;;5117101;28;20035;-70
2021/07/19 06:26:17;;;;;;;8.40;2.92;;;26.10;45.00;;;;;;5116911;28;20028;-70
2021/07/19 06:28:43;;;;;;;8.63;3.10;;;26.10;44.70;;;;;;5117389;28;20375;-70
2021/07/19 06:31:08;;;;;;;10.65;3.72;;;26.20;44.50;;;;;;5117101;28;20047;-70
2021/07/19 06:33:34;;;;;;;9.10;2.35;;;26.40;44.20;;;;;;5117044;28;20433;-70
2021/07/19 06:36:00;;;;;;;7.07;2.97;;;26.80;43.00;;;;;;5116975;28;20054;-70
2021/07/19 06:38:25;;;;;;;8.05;2.42;;;27.20;42.10;;;;;;5116679;28;20069;-70
2021/07/19 06:40:51;;;;;;;7.03;3.10;;;27.60;41.70;;;;;;5117305;28;20032;-70
2021/07/19 06:43:17;;;;;;;6.85;3.03;;;28.00;40.60;;;;;;5117053;28;20388;-70
2021/07/19 06:45:46;;;;;;;5.57;2.97;;;28.50;41.40;;;;;;5117201;28;20032;-70
2021/07/19 06:48:11;;;;;;;7.13;2.55;;;28.80;40.70;;;;;;5116889;28;20038;-70
2021/07/19 06:50:37;;;;;;;5.47;2.42;;;29.20;39.60;;;;;;5119118;28;20019;-70
2021/07/19 06:53:03;;;;;;;5.75;2.63;;;29.40;38.40;;;;;;5121243;28;20035;-70
2021/07/19 06:55:28;;;;;;;6.22;2.47;;;29.80;39.40;;;;;;5121182;28;20316;-70
2021/07/19 06:57:54;;;;;;;7.18;2.20;;;29.90;38.50;;;;;;5120676;28;20028;-70
2021/07/19 07:00:20;;;;;;;8.75;2.78;;;29.90;38.70;;;;;;5121124;28;20027;-70
2021/07/19 07:02:46;;;;;;;7.90;2.20;;;30.20;40.60;;;;;;5121058;28;20336;-70
2021/07/19 07:05:11;;;;;;;6.10;2.45;;;30.70;41.00;;;;;;5121054;28;20016;-70
2021/07/19 07:07:37;;;;;;;5.72;2.50;;;31.20;39.80;;;;;;5120942;28;20032;-70
2021/07/19 07:10:04;;;;;;;7.10;2.20;;;31.30;40.10;;;;;;5120616;28;20023;-70
2021/07/19 07:12:30;;;;;;;9.27;2.85;;;31.50;37.90;;;;;;5120516;28;20031;-70
2021/07/19 07:14:56;;;;;;;10.07;2.40;;;31.60;36.60;;;;;;5120828;28;20387;-70
2021/07/19 07:17:22;;;;;;;6.07;2.47;;;31.30;36.90;;;;;;5120243;28;20115;-70
2021/07/19 07:19:47;;;;;;;6.43;2.35;;;31.40;37.50;;;;;;5120412;28;20058;-70
2021/07/19 07:22:13;;;;;;;4.75;2.53;;;31.80;36.70;;;;;;5120691;28;20066;-70
2021/07/19 07:24:40;;;;;;;5.75;2.00;;;32.30;39.90;;;;;;5120680;28;20068;-70
2021/07/19 07:27:11;;;;;;;5.53;2.20;;;32.70;42.40;;;;;;5120592;28;20036;-72
2021/07/19 07:29:37;;;;;;;3.95;1.75;;;32.80;44.10;;;;;;5120282;28;20031;-71
2021/07/19 07:32:04;;;;;;;4.57;2.20;;;33.10;45.10;;;;;;5120223;28;20033;-71
2021/07/19 07:34:29;;;;;;;4.05;1.90;;;33.30;42.60;;;;;;5120129;28;20427;-70
2021/07/19 07:36:55;;;;;;;6.72;2.22;;;33.20;43.20;;;;;;5120343;28;20028;-71
2021/07/19 07:39:21;;;;;;;4.70;2.30;;;33.30;38.00;;;;;;5119868;28;20122;-71
2021/07/19 07:41:46;;;;;;;6.80;2.75;;;33.30;41.00;;;;;;5120321;28;20051;-71
2021/07/19 07:44:12;;;;;;;5.93;2.10;;;33.20;45.30;;;;;;5120374;28;20408;-71
2021/07/19 07:46:38;;;;;;;3.63;1.67;;;33.60;44.80;;;;;;5120218;28;20058;-71
2021/07/19 07:49:04;;;;;;;4.43;1.40;;;34.00;46.50;;;;;;5120179;28;20443;-71
2021/07/19 07:51:29;;;;;;;4.95;1.60;;;34.30;44.90;;;;;;5120137;28;20419;-71
2021/07/19 07:53:56;;;;;;;4.10;1.60;;;34.60;42.30;;;;;;5119747;28;20024;-71
2021/07/19 07:56:22;;;;;;;9.45;1.60;;;34.60;46.50;;;;;;5119745;28;20032;-71
2021/07/19 07:58:47;;;;;;;3.05;1.70;;;34.60;45.70;;;;;;5119936;28;20030;-71
2021/07/19 08:01:13;;;;;;;4.60;1.50;;;34.60;44.30;;;;;;5118544;28;20358;-71
2021/07/19 08:03:39;;;;;;;6.72;1.83;;;34.50;44.50;;;;;;5119280;28;20038;-71
2021/07/19 08:06:05;;;;;;;4.43;1.77;;;34.70;45.50;;;;;;5119820;28;20037;-71
2021/07/19 08:08:31;;;;;;;3.97;2.15;;;34.80;45.00;;;;;;5119784;28;20024;-71
2021/07/19 08:10:56;;;;;;;3.88;1.63;;;34.40;46.90;;;;;;5119753;28;20031;-71
2021/07/19 08:13:22;;;;;;;4.40;1.83;;;34.40;45.10;;;;;;5119549;28;20031;-71
2021/07/19 08:15:48;;;;;;;4.43;1.70;;;34.60;45.80;;;;;;5119345;28;20039;-70
2021/07/19 08:18:16;;;;;;;4.88;1.88;;;34.90;43.10;;;;;;5119550;28;20027;-70
2021/07/19 08:20:43;;;;;;;4.30;2.25;;;34.90;45.90;;;;;;5119573;28;20297;-72
2021/07/19 08:23:09;;;;;;;6.60;1.95;;;34.90;42.30;;;;;;5119540;28;20065;-71
2021/07/19 08:25:35;;;;;;;5.40;1.80;;;35.00;42.50;;;;;;5119163;28;20102;-71
2021/07/19 08:28:00;;;;;;;4.88;1.90;;;35.30;43.60;;;;;;5119518;28;20107;-71
2021/07/19 08:30:26;;;;;;;6.60;2.17;;;35.40;41.50;;;;;;5119369;28;20038;-71
2021/07/19 08:32:52;;;;;;;3.55;1.80;;;35.30;42.40;;;;;;5119377;28;20118;-71
2021/07/19 08:35:17;;;;;;;3.88;1.98;;;35.30;43.70;;;;;;5119267;28;20340;-71
2021/07/19 08:37:46;;;;;;;3.40;2.20;;;35.50;44.80;;;;;;5119187;28;20047;-71
2021/07/19 08:40:14;;;;;;;7.18;2.22;;;35.50;42.70;;;;;;5118753;28;20040;-71
2021/07/19 08:42:40;;;;;;;5.00;2.17;;;35.60;44.30;;;;;;5118834;28;20491;-71
2021/07/19 08:45:09;;;;;;;3.80;1.73;;;35.70;45.10;;;;;;5119122;28;20328;-72
2021/07/19 08:47:40;;;;;;;5.32;2.13;;;35.70;44.00;;;;;;5118919;28;20032;-72
2021/07/19 08:50:07;;;;;;;3.38;1.65;;;35.70;43.40;;;;;;5118723;28;20032;-72
2021/07/19 08:52:34;;;;;;;3.15;2.08;;;35.70;42.10;;;;;;5118580;28;20051;-71
2021/07/19 08:55:00;;;;;;;3.58;2.40;;;35.90;43.10;;;;;;5118967;28;20319;-71
2021/07/19 08:57:27;;;;;;;4.93;1.83;;;36.00;41.70;;;;;;5118410;28;20118;-71
2021/07/19 08:59:54;;;;;;;3.67;2.00;;;35.70;45.10;;;;;;5118839;28;20058;-71
2021/07/19 09:02:20;;;;;;;6.95;2.05;;;35.90;41.70;;;;;;5118746;28;20031;-72
2021/07/19 09:04:45;;;;;;;4.95;2.00;;;35.90;43.20;;;;;;5118695;28;20031;-71
2021/07/19 09:07:12;;;;;;;3.38;2.00;;;36.10;40.00;;;;;;5118327;28;20028;-71
2021/07/19 09:09:39;;;;;;;4.70;1.95;;;36.20;41.10;;;;;;5118548;28;20035;-71
2021/07/19 09:12:05;;;;;;;2.92;1.85;;;36.40;43.70;;;;;;5118482;28;20019;-71
2021/07/19 09:14:32;;;;;;;2.72;1.90;;;36.40;42.20;;;;;;5118318;28;20397;-71
2021/07/19 09:16:58;;;;;;;5.57;2.75;;;36.40;41.20;;;;;;5118246;28;20038;-71
2021/07/19 09:19:26;;;;;;;3.75;1.90;;;36.40;41.90;;;;;;5118424;28;20319;-72
2021/07/19 09:22:02;;;;;;;6.35;2.13;;;36.50;41.90;;;;;;5117991;28;20038;-71
2021/07/19 09:24:36;;;;;;;5.10;2.00;;;36.40;43.30;;;;;;5117974;28;20055;-71
2021/07/19 09:27:02;;;;;;;3.78;2.45;;;36.20;43.20;;;;;;5118274;28;20088;-71
2021/07/19 09:29:28;;;;;;;3.83;1.77;;;36.30;42.80;;;;;;5117824;28;20421;-71
2021/07/19 09:31:58;;;;;;;3.03;1.80;;;36.40;43.00;;;;;;5117889;28;20027;-71
2021/07/19 09:34:29;;;;;;;6.70;2.05;;;36.60;42.00;;;;;;5118153;28;20051;-71
2021/07/19 09:37:00;;;;;;;4.82;2.33;;;36.70;43.50;;;;;;5118013;28;20023;-71
2021/07/19 09:39:32;;;;;;;3.78;2.08;;;36.60;40.40;;;;;;5117590;28;20439;-71
2021/07/19 09:42:06;;;;;;;2.88;1.75;;;36.40;43.50;;;;;;5117992;28;20034;-71
2021/07/19 09:44:31;;;;;;;5.90;2.05;;;36.50;43.80;;;;;;5117628;28;20031;-71
2021/07/19 09:47:02;;;;;;;3.72;1.75;;;36.50;41.70;;;;;;5117884;28;20026;-71
2021/07/19 09:49:30;;;;;;;5.13;2.30;;;36.70;42.90;;;;;;5117841;28;20027;-72
2021/07/19 09:52:08;;;;;;;4.80;1.90;;;36.80;42.70;;;;;;5117875;28;20072;-71
2021/07/19 09:54:40;;;;;;;3.35;1.98;;;36.80;40.30;;;;;;5117569;28;20031;-72
2021/07/19 09:57:06;;;;;;;8.07;2.13;;;36.60;43.60;;;;;;5117368;28;20138;-71
2021/07/19 09:59:33;;;;;;;5.40;2.97;;;36.60;41.90;;;;;;5117696;28;20043;-72
2021/07/19 10:02:00;;;;;;;9.05;2.00;;;36.40;39.60;;;;;;5117383;28;20099;-71
2021/07/19 10:04:26;;;;;;;5.57;2.47;;;36.30;42.50;;;;;;5117645;28;20032;-72
2021/07/19 10:06:55;;;;;;;4.68;2.33;;;36.40;41.70;;;;;;5117320;28;20068;-72
2021/07/19 10:09:22;;;;;;;4.80;2.08;;;36.50;40.20;;;;;;5117280;28;20026;-72
2021/07/19 10:11:51;;;;;;;5.20;1.80;;;36.40;39.40;;;;;;5117549;28;20337;-71
2021/07/19 10:14:26;;;;;;;6.90;2.17;;;36.50;43.10;;;;;;5117640;28;20055;-72
2021/07/19 10:16:53;;;;;;;7.03;2.20;;;36.80;42.30;;;;;;5117668;28;20027;-71
2021/07/19 10:19:20;;;;;;;5.47;2.10;;;36.80;38.40;;;;;;5111091;28;20051;-71
2021/07/19 10:21:46;;;;;;;4.25;1.98;;;36.40;40.70;;;;;;5108040;28;20027;-71
2021/07/19 10:24:11;;;;;;;6.07;2.20;;;36.40;39.20;;;;;;5116806;28;20107;-71
2021/07/19 10:26:37;;;;;;;5.95;2.13;;;36.40;40.50;;;;;;5116841;28;20032;-71
2021/07/19 10:29:06;;;;;;;8.27;2.55;;;36.60;38.60;;;;;;5117330;28;20031;-72
2021/07/19 10:31:33;;;;;;;4.97;2.13;;;36.50;37.50;;;;;;5117374;28;20023;-71
2021/07/19 10:34:01;;;;;;;5.57;2.40;;;36.20;39.80;;;;;;5117365;28;20296;-71
2021/07/19 10:36:47;;;;;;;5.63;2.20;;;36.10;38.60;;;;;;5117292;28;20032;-71
2021/07/19 10:39:32;;;;;;;4.97;2.05;;;36.00;39.60;;;;;;5116923;28;20047;-71
2021/07/19 10:42:07;;;;;;;8.77;2.42;;;35.80;43.70;;;;;;5117311;28;20035;-72
2021/07/19 10:44:35;;;;;;;7.40;2.45;;;35.80;41.30;;;;;;5117488;28;20316;-71
2021/07/19 10:47:26;;;;;;;2.88;1.85;;;35.70;40.40;;;;;;5117241;28;20085;-71
2021/07/19 10:49:58;;;;;;;5.55;2.00;;;35.70;39.80;;;;;;5117240;28;20042;-71
2021/07/19 10:52:34;;;;;;;7.25;2.30;;;35.90;40.30;;;;;;5116868;28;20107;-71
2021/07/19 10:55:02;;;;;;;6.88;2.15;;;35.70;39.70;;;;;;5116866;28;20518;-71
2021/07/19 10:57:38;;;;;;;6.07;2.22;;;35.60;40.60;;;;;;5116689;28;20411;-71
2021/07/19 11:00:09;;;;;;;4.82;2.20;;;35.40;41.90;;;;;;5117097;28;20019;-71
2021/07/19 11:02:35;;;;;;;4.75;2.08;;;35.30;40.80;;;;;;5116779;28;20027;-71
2021/07/19 11:05:02;;;;;;;8.18;2.50;;;35.40;40.90;;;;;;5117088;28;20065;-71
2021/07/19 11:07:41;;;;;;;4.63;2.40;;;35.50;41.50;;;;;;5116980;28;20027;-71
2021/07/19 11:10:14;;;;;;;7.10;2.60;;;35.50;41.00;;;;;;5117040;28;20115;-71
2021/07/19 11:12:58;;;;;;;5.57;2.20;;;35.70;41.90;;;;;;5116907;28;20331;-71
2021/07/19 11:15:35;;;;;;;7.00;2.45;;;35.70;40.90;;;;;;5116643;28;20425;-71
2021/07/19 11:18:18;;;;;;;7.13;2.20;;;35.60;43.90;;;;;;5116579;28;20034;-71
2021/07/19 11:20:47;;;;;;;3.92;2.05;;;35.70;42.20;;;;;;5116919;28;20016;-71
2021/07/19 11:23:14;;;;;;;7.18;2.10;;;35.80;38.30;;;;;;5116871;28;20320;-71
2021/07/19 11:25:43;;;;;;;6.07;2.10;;;35.70;44.70;;;;;;5116839;28;20099;-71
2021/07/19 11:28:23;;;;;;;3.35;1.98;;;35.50;46.30;;;;;;5116576;28;20024;-71
2021/07/19 11:31:09;;;;;;;7.53;2.58;;;35.40;41.30;;;;;;5116853;28;20028;-72
2021/07/19 11:33:36;;;;;;;4.70;2.28;;;35.20;41.30;;;;;;5116467;28;20028;-71
2021/07/19 11:36:04;;;;;;;6.63;2.25;;;35.10;37.90;;;;;;5117326;28;20424;-70
2021/07/19 11:38:37;;;;;;;5.63;2.05;;;35.10;40.70;;;;;;5120350;28;20035;-70
2021/07/19 11:41:27;;;;;;;7.07;2.58;;;35.10;42.30;;;;;;5120092;28;20106;-71
2021/07/19 11:43:55;;;;;;;6.45;2.10;;;34.70;43.30;;;;;;5120606;28;20076;-71
2021/07/19 11:46:40;;;;;;;4.00;2.15;;;34.60;42.70;;;;;;5119928;28;20407;-71
2021/07/19 11:49:12;;;;;;;4.13;2.00;;;34.60;42.00;;;;;;5120029;28;20044;-71
2021/07/19 11:51:39;;;;;;;5.40;2.33;;;34.50;40.90;;;;;;5120143;28;20069;-71
2021/07/19 11:54:05;;;;;;;9.05;2.55;;;34.40;39.70;;;;;;5120100;28;20028;-71
2021/07/19 11:56:31;;;;;;;5.97;2.35;;;34.20;40.10;;;;;;5120024;28;20046;-71
2021/07/19 11:59:02;;;;;;;8.23;2.42;;;34.20;43.50;;;;;;5119634;28;20035;-70
2021/07/19 12:01:30;;;;;;;4.90;2.50;;;34.20;43.80;;;;;;5119648;28;20024;-71
2021/07/19 12:03:58;;;;;;;10.10;2.95;;;34.10;44.40;;;;;;5119949;28;20022;-71
2021/07/19 12:06:25;;;;;;;6.40;2.55;;;34.00;43.40;;;;;;5119651;28;20072;-71
2021/07/19 12:09:02;;;;;;;5.95;2.30;;;33.80;39.40;;;;;;5119828;28;20024;-71
2021/07/19 12:11:30;;;;;;;6.15;2.78;;;33.70;48.40;;;;;;5119566;28;20415;-71
2021/07/19 12:14:01;;;;;;;7.25;2.60;;;33.60;40.70;;;;;;5119837;28;20323;-71
2021/07/19 12:16:39;;;;;;;5.60;2.60;;;33.40;40.30;;;;;;5119691;28;20297;-71
2021/07/19 12:19:06;;;;;;;6.68;2.45;;;33.20;41.50;;;;;;5119634;28;20046;-71
2021/07/19 12:21:38;;;;;;;6.57;2.42;;;32.90;44.60;;;;;;5119613;28;20035;-71
2021/07/19 12:24:04;;;;;;;13.93;2.78;;;32.60;43.50;;;;;;5119476;28;20053;-71
2021/07/19 12:26:32;;;;;;;5.85;2.00;;;32.50;45.60;;;;;;5119172;28;20403;-71
2021/07/19 12:29:14;;;;;;;10.70;2.60;;;32.50;45.30;;;;;;5119442;28;20045;-71
2021/07/19 12:31:43;;;;;;;8.38;2.80;;;32.50;45.10;;;;;;5119425;28;20054;-71
2021/07/19 12:34:27;;;;;;;5.18;2.90;;;32.50;45.80;;;;;;5119056;28;20343;-71
2021/07/19 12:36:57;;;;;;;6.35;2.58;;;32.40;44.40;;;;;;5118949;28;20483;-71
2021/07/19 12:39:31;;;;;;;17.67;3.40;;;32.40;45.80;;;;;;5118965;28;20048;-71
2021/07/19 12:41:58;;;;;;;7.32;2.70;;;32.40;45.80;;;;;;5119257;28;20289;-71
2021/07/19 12:44:30;;;;;;;12.07;2.70;;;32.30;49.10;;;;;;5119308;28;20023;-70
2021/07/19 12:46:57;;;;;;;9.00;2.70;;;32.30;45.00;;;;;;5118572;28;20032;-71
2021/07/19 12:49:30;;;;;;;6.10;2.80;;;32.10;44.90;;;;;;5118465;28;20023;-71
2021/07/19 12:52:01;;;;;;;9.10;2.38;;;32.00;46.50;;;;;;5119016;28;20020;-71